TimeCST,TemperatureF,Dew PointF,Humidity,Sea Level PressureIn,VisibilityMPH,Wind Direction,Wind SpeedMPH,Gust SpeedMPH,PrecipitationIn,Events,Conditions,WindDirDegrees,DateUTC
12:53 AM,54.0,48.9,83,30.13,10.0,Calm,Calm,-,N/A,,Clear,0,2013-01-01 06:53:00
1:53 AM,53.1,48.9,86,30.13,10.0,SSE,5.8,-,N/A,,Clear,150,2013-01-01 07:53:00
2:53 AM,50.0,48.0,93,30.12,10.0,Calm,Calm,-,N/A,,Clear,0,2013-01-01 08:53:00
3:53 AM,51.1,48.9,92,30.09,10.0,South,5.8,-,N/A,,Clear,180,2013-01-01 09:53:00
4:53 AM,51.1,48.0,89,30.08,10.0,Calm,Calm,-,N/A,,Clear,0,2013-01-01 10:53:00
5:53 AM,54.0,50.0,86,30.08,10.0,SSE,3.5,-,N/A,,Clear,160,2013-01-01 11:53:00
7:53 AM,54.0,52.0,93,30.08,10.0,South,3.5,-,N/A,,Clear,180,2013-01-01 13:53:00
8:53 AM,61.0,55.9,83,30.09,10.0,South,10.4,-,N/A,,Clear,180,2013-01-01 14:53:00
9:53 AM,68.0,59.0,73,30.08,10.0,South,13.8,-,N/A,,Clear,190,2013-01-01 15:53:00
10:53 AM,73.9,59.0,59,30.06,10.0,SSW,15.0,-,N/A,,Clear,200,2013-01-01 16:53:00
11:53 AM,75.0,59.0,57,30.03,10.0,SSW,13.8,21.9,N/A,,Mostly Cloudy,200,2013-01-01 17:53:00
12:53 PM,75.9,59.0,56,30.00,10.0,SSW,16.1,23.0,N/A,,Mostly Cloudy,210,2013-01-01 18:53:00
1:53 PM,75.9,59.0,56,29.98,10.0,SSW,13.8,-,N/A,,Clear,200,2013-01-01 19:53:00
2:53 PM,73.9,57.9,57,29.98,10.0,SSW,15.0,20.7,N/A,,Mostly Cloudy,210,2013-01-01 20:53:00
3:53 PM,72.0,59.0,64,29.97,10.0,SSW,11.5,-,N/A,,Overcast,200,2013-01-01 21:53:00
4:53 PM,71.1,57.9,63,29.98,10.0,SSW,9.2,-,N/A,,Overcast,200,2013-01-01 22:53:00
5:53 PM,69.1,59.0,70,29.98,10.0,SSW,9.2,-,N/A,,Overcast,200,2013-01-01 23:53:00
6:53 PM,66.0,59.0,78,29.98,10.0,South,9.2,-,N/A,,Partly Cloudy,190,2013-01-02 00:53:00
7:53 PM,64.9,60.1,84,29.98,10.0,SSW,6.9,-,N/A,,Scattered Clouds,200,2013-01-02 01:53:00
8:05 PM,64.4,60.8,88,29.99,10.0,South,6.9,-,N/A,,Mostly Cloudy,190,2013-01-02 02:05:00
8:46 PM,66.2,62.6,88,29.99,10.0,South,6.9,-,N/A,,Overcast,190,2013-01-02 02:46:00
8:53 PM,64.9,62.1,90,29.98,10.0,South,6.9,-,N/A,,Overcast,190,2013-01-02 02:53:00
9:53 PM,66.0,63.0,90,29.98,10.0,South,8.1,-,N/A,,Overcast,190,2013-01-02 03:53:00
10:26 PM,66.2,62.6,88,29.97,10.0,South,9.2,-,N/A,,Mostly Cloudy,190,2013-01-02 04:26:00
10:53 PM,66.0,64.0,93,29.97,10.0,SSW,5.8,-,N/A,,Overcast,200,2013-01-02 04:53:00
11:53 PM,68.0,64.9,90,29.96,10.0,SSW,9.2,-,N/A,,Overcast,210,2013-01-02 05:53:00